Time;durP1;ratioP1;P1;durP2;ratioP2;P2;SDS_P1;SDS_P2;PMS_P1;PMS_P2;Temp;Humidity;BMP_temperature;BMP_pressure;BME280_temperature;BME280_humidity;BME280_pressure;Samples;Min_cycle;Max_cycle;Signal;HPM_P1;HPM_P2
2021/10/30 00:02:00;;;;;;;5.75;2.92;;;;;;;8.61;100.00;100095.50;5274402;28;20058;-78
2021/10/30 00:04:31;;;;;;;7.90;3.00;;;;;;;8.60;100.00;100099.03;5287332;28;20023;-78
2021/10/30 00:07:01;;;;;;;6.13;3.05;;;;;;;8.59;100.00;100102.50;5285822;28;20452;-79
2021/10/30 00:09:31;;;;;;;7.50;2.92;;;;;;;8.60;100.00;100099.03;5283351;28;20543;-79
2021/10/30 00:12:02;;;;;;;5.90;2.95;;;;;;;8.66;100.00;100106.59;5286912;28;20049;-79
2021/10/30 00:14:32;;;;;;;4.57;3.00;;;;;;;8.70;100.00;100113.41;5286507;28;20031;-78
2021/10/30 00:17:03;;;;;;;4.80;2.92;;;;;;;8.72;100.00;100106.38;5287826;28;20035;-78
2021/10/30 00:19:33;;;;;;;4.55;3.00;;;;;;;8.74;100.00;100114.16;5287288;28;20057;-78
2021/10/30 00:22:04;;;;;;;6.03;2.95;;;;;;;8.67;100.00;100120.47;5288201;28;20064;-79
2021/10/30 00:24:35;;;;;;;5.88;2.85;;;;;;;8.72;100.00;100126.38;5270890;28;20039;-79
2021/10/30 00:27:08;;;;;;;4.55;2.92;;;;;;;8.73;100.00;100134.13;5287387;28;20043;-79
2021/10/30 00:29:39;;;;;;;6.35;2.97;;;;;;;8.71;100.00;100125.53;5291864;28;20048;-78
2021/10/30 00:32:09;;;;;;;5.57;3.20;;;;;;;8.69;100.00;100124.72;5291324;28;20021;-78
2021/10/30 00:34:39;;;;;;;5.93;2.60;;;;;;;8.56;100.00;100130.44;5283291;27;20110;-78
2021/10/30 00:37:10;;;;;;;4.75;2.75;;;;;;;8.60;100.00;100119.00;5286733;28;20719;-78
2021/10/30 00:39:40;;;;;;;5.53;3.03;;;;;;;8.53;100.00;100113.13;5290875;28;20031;-78
2021/10/30 00:42:11;;;;;;;5.15;2.92;;;;;;;8.45;100.00;100120.38;5291237;28;20102;-78
2021/10/30 00:44:41;;;;;;;7.13;2.90;;;;;;;8.27;100.00;100114.94;5289670;28;20023;-79
2021/10/30 00:47:13;;;;;;;4.43;2.72;;;;;;;8.23;100.00;100119.38;5290243;28;20059;-78
2021/10/30 00:49:45;;;;;;;6.00;3.05;;;;;;;8.11;100.00;100124.97;5291028;28;20482;-79
2021/10/30 00:52:15;;;;;;;5.28;2.78;;;;;;;8.03;100.00;100121.75;5290286;28;20023;-79
2021/10/30 00:54:46;;;;;;;5.25;3.03;;;;;;;8.00;100.00;100119.28;5288471;28;20031;-79
2021/10/30 00:57:18;;;;;;;6.28;3.40;;;;;;;8.37;100.00;100124.16;5288467;28;20038;-79
2021/10/30 00:59:49;;;;;;;4.97;2.72;;;;;;;8.37;100.00;100117.16;5288882;28;20596;-78
2021/10/30 01:02:19;;;;;;;6.32;2.88;;;;;;;8.43;100.00;100118.72;5281146;28;20032;-79
2021/10/30 01:04:50;;;;;;;5.07;2.80;;;;;;;8.30;100.00;100120.03;5290733;28;20482;-78
2021/10/30 01:07:21;;;;;;;4.93;2.97;;;;;;;8.29;100.00;100121.81;5290609;28;20038;-79
2021/10/30 01:09:52;;;;;;;5.25;2.78;;;;;;;8.14;100.00;100116.19;5290731;28;20019;-78
2021/10/30 01:12:22;;;;;;;5.00;2.80;;;;;;;8.17;100.00;100127.38;5286163;28;20320;-78
2021/10/30 01:14:53;;;;;;;6.43;3.70;;;;;;;8.05;100.00;100117.34;5289294;28;20065;-79
2021/10/30 01:17:24;;;;;;;7.47;4.28;;;;;;;8.07;100.00;100115.56;5290423;28;20020;-79
2021/10/30 01:19:54;;;;;;;6.25;3.50;;;;;;;8.04;100.00;100110.44;5290546;28;20027;-79
2021/10/30 01:22:25;;;;;;;8.25;3.55;;;;;;;8.02;100.00;100104.44;5290175;28;20118;-78
2021/10/30 01:24:55;;;;;;;5.63;3.05;;;;;;;8.03;100.00;100103.56;5293111;28;20023;-79
2021/10/30 01:27:26;;;;;;;5.28;2.95;;;;;;;8.10;100.00;100097.25;5290822;28;20100;-78
2021/10/30 01:29:57;;;;;;;5.00;3.25;;;;;;;8.06;100.00;100100.84;5289847;28;20035;-78
2021/10/30 01:32:27;;;;;;;4.50;2.85;;;;;;;8.13;100.00;100096.28;5290099;28;20557;-78
2021/10/30 01:34:57;;;;;;;4.97;3.10;;;;;;;8.01;100.00;100094.13;5289492;28;20118;-78
2021/10/30 01:37:28;;;;;;;5.35;2.92;;;;;;;7.99;100.00;100099.34;5289086;28;20039;-78
2021/10/30 01:39:58;;;;;;;5.05;2.92;;;;;;;7.97;100.00;100100.28;5289915;28;20136;-78
2021/10/30 01:42:28;;;;;;;4.00;2.80;;;;;;;7.88;100.00;100105.81;5288652;28;20042;-78
2021/10/30 01:44:58;;;;;;;4.55;2.60;;;;;;;7.82;100.00;100106.84;5288420;28;20072;-79
2021/10/30 01:47:29;;;;;;;5.70;2.75;;;;;;;7.84;100.00;100114.63;5288319;28;20546;-79
2021/10/30 01:49:59;;;;;;;5.15;3.38;;;;;;;7.97;100.00;100115.91;5289794;28;20406;-79
2021/10/30 01:52:29;;;;;;;5.30;3.00;;;;;;;8.02;100.00;100103.63;5275956;28;20019;-79
2021/10/30 01:54:59;;;;;;;4.95;3.15;;;;;;;8.04;100.00;100101.81;5276241;28;20076;-79
2021/10/30 01:57:30;;;;;;;4.88;2.90;;;;;;;8.05;100.00;100104.34;5289238;28;20059;-79
2021/10/30 02:00:00;;;;;;;4.43;2.60;;;;;;;8.10;100.00;100099.88;5289268;28;20080;-79
2021/10/30 02:02:30;;;;;;;3.45;2.25;;;;;;;7.98;100.00;100097.66;5288835;28;20035;-79
2021/10/30 02:05:01;;;;;;;4.75;2.78;;;;;;;8.00;100.00;100095.84;5274046;28;20024;-80
2021/10/30 02:07:32;;;;;;;4.60;2.83;;;;;;;7.94;100.00;100097.78;5275122;28;20028;-79
2021/10/30 02:10:04;;;;;;;5.65;3.20;;;;;;;7.94;100.00;100100.41;5279797;28;20114;-80
2021/10/30 02:12:34;;;;;;;5.47;3.28;;;;;;;7.91;100.00;100084.91;5286877;28;20032;-79
2021/10/30 02:15:06;;;;;;;4.18;2.72;;;;;;;7.93;100.00;100085.69;5287325;28;20026;-79
2021/10/30 02:17:37;;;;;;;5.15;3.20;;;;;;;7.96;100.00;100083.84;5274095;28;20521;-79
2021/10/30 02:20:09;;;;;;;5.18;2.85;;;;;;;7.98;100.00;100086.38;5274824;28;20039;-79
2021/10/30 02:22:39;;;;;;;5.35;3.08;;;;;;;8.06;100.00;100090.44;5288371;28;20049;-79
2021/10/30 02:25:10;;;;;;;5.18;2.95;;;;;;;8.07;100.00;100080.88;5276896;28;20012;-80
2021/10/30 02:27:40;;;;;;;6.93;3.08;;;;;;;8.06;100.00;100074.81;5287657;28;20038;-79
2021/10/30 02:30:11;;;;;;;6.07;3.22;;;;;;;8.06;100.00;100074.81;5282670;28;20023;-80
2021/10/30 02:32:41;;;;;;;6.25;3.00;;;;;;;8.08;100.00;100064.38;5288597;28;20110;-79
2021/10/30 02:35:12;;;;;;;4.97;3.08;;;;;;;8.09;100.00;100072.13;5287114;28;20032;-80
2021/10/30 02:37:43;;;;;;;5.30;3.13;;;;;;;8.04;100.00;100071.41;5286317;28;20099;-79
2021/10/30 02:40:13;;;;;;;5.43;3.30;;;;;;;8.01;100.00;100066.31;5288442;28;20038;-79
2021/10/30 02:42:43;;;;;;;4.93;3.20;;;;;;;8.03;100.00;100069.72;5277436;28;20028;-80
2021/10/30 02:45:14;;;;;;;4.55;2.83;;;;;;;8.08;100.00;100061.78;5288244;28;20031;-79
2021/10/30 02:47:44;;;;;;;5.55;3.50;;;;;;;8.14;100.00;100059.81;5277047;28;20045;-79
2021/10/30 02:50:15;;;;;;;8.32;3.65;;;;;;;8.21;100.00;100055.28;5287905;28;20525;-79
2021/10/30 02:52:46;;;;;;;8.23;3.40;;;;;;;8.18;100.00;100064.03;5287334;28;20051;-79
2021/10/30 02:55:16;;;;;;;5.03;3.17;;;;;;;8.22;100.00;100043.97;5272810;28;20027;-79
2021/10/30 02:57:48;;;;;;;5.43;3.35;;;;;;;8.12;100.00;100042.53;5286714;28;20088;-79
2021/10/30 03:00:19;;;;;;;7.55;3.17;;;;;;;8.10;100.00;100057.34;5286509;28;20696;-79
2021/10/30 03:02:49;;;;;;;6.07;3.25;;;;;;;8.14;100.00;100065.03;5287776;28;20035;-79
2021/10/30 03:05:19;;;;;;;7.03;3.38;;;;;;;8.19;100.00;100060.53;5290319;28;20045;-78
2021/10/30 03:07:50;;;;;;;5.72;3.30;;;;;;;8.27;100.00;100058.53;5292895;28;20035;-78
2021/10/30 03:10:21;;;;;;;6.55;3.22;;;;;;;8.34;100.00;100056.53;5282607;28;20111;-78
2021/10/30 03:12:51;;;;;;;6.05;3.70;;;;;;;8.41;100.00;100052.84;5293538;28;20043;-77
2021/10/30 03:15:22;;;;;;;6.25;3.60;;;;;;;8.46;100.00;100046.56;5274349;28;20028;-78
2021/10/30 03:17:52;;;;;;;4.65;3.30;;;;;;;8.38;100.00;100043.38;5292770;28;20118;-79
2021/10/30 03:20:22;;;;;;;5.20;3.33;;;;;;;8.31;100.00;100044.50;5292774;28;20091;-78
2021/10/30 03:22:52;;;;;;;6.28;3.28;;;;;;;8.30;100.00;100050.63;5293215;28;20546;-78
2021/10/30 03:25:23;;;;;;;5.40;3.17;;;;;;;8.29;100.00;100051.53;5288884;28;20028;-78
2021/10/30 03:27:53;;;;;;;5.30;3.28;;;;;;;8.30;100.00;100048.00;5293191;28;20028;-78
2021/10/30 03:30:24;;;;;;;5.97;3.70;;;;;;;8.18;100.00;100058.84;5284240;28;20019;-78
2021/10/30 03:32:54;;;;;;;6.78;3.47;;;;;;;8.00;100.00;100053.34;5279692;28;20124;-78
2021/10/30 03:35:25;;;;;;;5.32;3.75;;;;;;;7.91;100.00;100046.72;5292866;28;20035;-78
2021/10/30 03:37:55;;;;;;;6.32;3.65;;;;;;;7.85;100.00;100049.53;5293564;28;20379;-78
2021/10/30 03:40:25;;;;;;;6.18;3.65;;;;;;;7.80;100.00;100045.38;5294224;28;20019;-78
2021/10/30 03:42:56;;;;;;;6.60;3.90;;;;;;;7.70;100.00;100047.41;5294071;28;20031;-78
2021/10/30 03:45:26;;;;;;;6.88;3.92;;;;;;;7.66;100.00;100045.81;5292617;28;20578;-78
2021/10/30 03:47:56;;;;;;;7.75;3.72;;;;;;;7.62;100.00;100044.22;5294098;28;20139;-78
2021/10/30 03:50:27;;;;;;;6.38;3.88;;;;;;;7.59;100.00;100038.28;5293972;28;20041;-78
2021/10/30 03:52:57;;;;;;;7.20;3.70;;;;;;;7.59;100.00;100036.53;5289194;28;20065;-79
2021/10/30 03:55:28;;;;;;;8.73;3.80;;;;;;;7.43;100.00;100037.91;5293914;28;20043;-77
2021/10/30 03:57:59;;;;;;;6.80;4.15;;;;;;;7.39;100.00;100028.50;5280520;28;20024;-79
2021/10/30 04:00:29;;;;;;;8.43;4.22;;;;;;;7.48;100.00;100037.75;5294709;28;20087;-78
2021/10/30 04:03:00;;;;;;;6.65;3.80;;;;;;;7.47;100.00;100029.13;5293882;28;20449;-78
2021/10/30 04:05:30;;;;;;;7.63;4.40;;;;;;;7.54;100.00;100029.78;5296226;28;20024;-78
2021/10/30 04:08:00;;;;;;;7.43;4.43;;;;;;;7.57;100.00;100025.34;5297550;28;20028;-78
2021/10/30 04:10:31;;;;;;;7.45;4.72;;;;;;;7.59;100.00;100031.34;5297588;28;20030;-78
2021/10/30 04:13:01;;;;;;;7.20;4.28;;;;;;;7.59;100.00;100025.25;5296794;28;20379;-78
2021/10/30 04:15:31;;;;;;;7.57;4.63;;;;;;;7.59;100.00;100026.13;5295790;28;20047;-77
2021/10/30 04:18:02;;;;;;;7.15;4.60;;;;;;;7.64;100.00;100029.44;5297326;28;20051;-78
2021/10/30 04:20:32;;;;;;;7.05;4.30;;;;;;;7.64;100.00;100024.22;5283783;28;20044;-78
2021/10/30 04:23:02;;;;;;;7.70;4.50;;;;;;;7.72;100.00;100024.81;5296430;28;20030;-79
2021/10/30 04:25:33;;;;;;;10.27;4.72;;;;;;;7.83;100.00;100016.66;5296155;28;20035;-77
2021/10/30 04:28:03;;;;;;;8.80;5.22;;;;;;;7.84;100.00;100021.81;5287440;28;20114;-79
2021/10/30 04:30:34;;;;;;;7.20;4.35;;;;;;;7.86;100.00;100013.97;5296286;28;20028;-77
2021/10/30 04:33:05;;;;;;;5.95;4.00;;;;;;;7.89;100.00;100013.88;5296028;28;20098;-78
2021/10/30 04:35:39;;;;;;;7.10;4.43;;;;;;;7.91;100.00;99999.03;5295506;28;20034;-78
2021/10/30 04:38:09;;;;;;;7.82;4.60;;;;;;;7.89;100.00;100004.28;5294007;28;20463;-78
2021/10/30 04:40:39;;;;;;;7.57;4.75;;;;;;;7.89;100.00;100000.84;5296466;28;20035;-77
2021/10/30 04:43:10;;;;;;;9.48;4.93;;;;;;;7.84;100.00;99995.81;5280680;28;20020;-78
2021/10/30 04:45:41;;;;;;;7.28;3.72;;;;;;;7.84;100.00;99979.34;5290548;28;20020;-78
2021/10/30 04:48:12;;;;;;;6.95;4.43;;;;;;;7.80;100.00;99980.34;5291811;28;20379;-79
2021/10/30 04:50:43;;;;;;;7.72;4.70;;;;;;;7.78;100.00;99979.53;5292397;28;20026;-78
2021/10/30 04:53:13;;;;;;;8.52;4.50;;;;;;;7.83;100.00;99982.84;5289426;28;20032;-78
2021/10/30 04:55:44;;;;;;;8.40;4.50;;;;;;;7.75;100.00;99972.72;5291127;28;20093;-77
2021/10/30 04:58:14;;;;;;;7.28;4.20;;;;;;;7.76;100.00;99966.63;5291050;28;20499;-78
2021/10/30 05:00:44;;;;;;;8.27;4.15;;;;;;;7.76;100.00;99966.63;5293324;28;20030;-79
2021/10/30 05:03:14;;;;;;;7.68;3.92;;;;;;;7.57;100.00;99965.53;5288851;28;20092;-79
2021/10/30 05:05:45;;;;;;;6.43;4.10;;;;;;;7.49;100.00;99962.31;5290280;28;20115;-78
2021/10/30 05:08:15;;;;;;;8.07;3.78;;;;;;;7.48;100.00;99962.34;5295046;28;20028;-78
2021/10/30 05:10:46;;;;;;;8.60;4.53;;;;;;;7.38;100.00;99964.41;5297099;28;20406;-78
2021/10/30 05:13:16;;;;;;;6.70;4.15;;;;;;;7.41;100.00;99950.47;5297538;28;20028;-78
2021/10/30 05:15:46;;;;;;;6.70;4.30;;;;;;;7.38;100.00;99951.41;5289977;28;20570;-78
2021/10/30 05:18:17;;;;;;;7.18;4.30;;;;;;;7.50;100.00;99953.63;5289788;28;20498;-78
2021/10/30 05:20:49;;;;;;;7.00;4.43;;;;;;;7.42;100.00;99946.97;5289983;27;20036;-78
2021/10/30 05:23:19;;;;;;;10.43;4.40;;;;;;;7.43;100.00;99946.06;5296186;28;20020;-78
2021/10/30 05:25:50;;;;;;;6.65;4.18;;;;;;;7.38;100.00;99948.81;5294622;28;20027;-77
2021/10/30 05:28:23;;;;;;;8.27;4.50;;;;;;;7.31;100.00;99942.13;5290636;28;20030;-79
2021/10/30 05:30:53;;;;;;;6.50;4.10;;;;;;;7.33;100.00;99942.09;5285823;28;20032;-78
2021/10/30 05:33:23;;;;;;;7.63;4.35;;;;;;;7.28;100.00;99940.53;5285040;28;20047;-78
2021/10/30 05:35:54;;;;;;;6.10;3.92;;;;;;;7.27;100.00;99938.84;5282553;28;20044;-78
2021/10/30 05:38:24;;;;;;;6.53;4.00;;;;;;;7.14;100.00;99937.53;5289135;28;20038;-79
2021/10/30 05:40:54;;;;;;;7.90;4.13;;;;;;;7.22;100.00;99946.78;5282507;28;20069;-78
2021/10/30 05:43:24;;;;;;;8.75;4.30;;;;;;;7.28;100.00;99944.84;5289815;28;20053;-78
2021/10/30 05:45:55;;;;;;;10.35;5.03;;;;;;;7.47;100.00;99953.72;5289978;28;20023;-78
2021/10/30 05:48:27;;;;;;;11.13;4.95;;;;;;;7.66;100.00;99941.81;5289959;28;20031;-78
2021/10/30 05:50:58;;;;;;;8.63;4.90;;;;;;;7.72;100.00;99936.38;5286245;28;20027;-78
2021/10/30 05:53:29;;;;;;;9.93;4.97;;;;;;;7.71;100.00;99939.91;5286229;28;20091;-78
2021/10/30 05:55:59;;;;;;;9.35;4.88;;;;;;;7.68;100.00;99941.78;5281168;28;20023;-79
2021/10/30 05:58:30;;;;;;;7.82;5.20;;;;;;;7.68;100.00;99937.41;5285597;28;20024;-79
2021/10/30 06:01:00;;;;;;;9.13;4.88;;;;;;;7.73;100.00;99937.25;5284783;28;20077;-78
2021/10/30 06:03:30;;;;;;;9.75;4.82;;;;;;;7.70;100.00;99942.56;5280674;28;20028;-78
2021/10/30 06:06:01;;;;;;;8.18;5.15;;;;;;;7.68;100.00;99937.41;5282930;28;20483;-78
2021/10/30 06:08:31;;;;;;;7.25;4.60;;;;;;;7.67;100.00;99934.88;5290247;28;20024;-79
2021/10/30 06:11:01;;;;;;;8.82;4.60;;;;;;;7.73;100.00;99925.09;5291258;28;20019;-79
2021/10/30 06:13:32;;;;;;;7.07;4.38;;;;;;;7.79;100.00;99919.69;5289920;28;20039;-78
2021/10/30 06:16:02;;;;;;;7.20;4.25;;;;;;;7.94;100.00;99913.94;5289710;28;20418;-79
2021/10/30 06:18:32;;;;;;;10.85;4.57;;;;;;;8.08;100.00;99911.69;5291901;28;20027;-79
2021/10/30 06:21:03;;;;;;;8.07;3.72;;;;;;;8.23;100.00;99911.16;5290559;28;20039;-79
2021/10/30 06:23:33;;;;;;;4.90;2.85;;;;;;;9.02;100.00;99902.00;5291388;28;20102;-77
2021/10/30 06:26:03;;;;;;;6.22;3.45;;;;;;;9.55;100.00;99903.25;5291758;28;20038;-79
2021/10/30 06:28:34;;;;;;;5.07;2.80;;;;;;;9.98;97.04;99895.28;5291217;28;20029;-78
2021/10/30 06:31:04;;;;;;;5.40;2.78;;;;;;;10.07;96.70;99902.72;5292629;28;20546;-78
2021/10/30 06:33:34;;;;;;;5.15;3.03;;;;;;;9.79;98.44;99913.50;5291934;28;20027;-78
2021/10/30 06:36:05;;;;;;;5.28;3.50;;;;;;;9.65;99.38;99910.63;5291744;28;20379;-78
2021/10/30 06:38:35;;;;;;;6.57;3.40;;;;;;;9.66;98.76;99912.31;5292201;28;20397;-78
2021/10/30 06:41:06;;;;;;;5.65;3.28;;;;;;;9.63;100.00;99914.22;5291654;28;20020;-78
2021/10/30 06:43:37;;;;;;;5.55;3.20;;;;;;;9.64;99.34;99906.31;5291819;28;20039;-78
2021/10/30 06:46:08;;;;;;;7.07;3.72;;;;;;;9.80;98.60;99906.53;5291774;28;20107;-78
2021/10/30 06:48:38;;;;;;;7.13;3.03;;;;;;;9.99;97.19;99903.03;5291933;28;20034;-79
2021/10/30 06:51:11;;;;;;;5.07;3.03;;;;;;;10.56;92.99;99884.78;5291133;28;20078;-78
2021/10/30 06:53:42;;;;;;;4.93;2.72;;;;;;;11.10;89.00;99888.22;5287202;28;20028;-78
2021/10/30 06:56:12;;;;;;;5.13;2.60;;;;;;;11.42;87.44;99890.09;5283006;28;20035;-78
2021/10/30 06:58:42;;;;;;;4.55;2.58;;;;;;;11.63;86.20;99886.44;5282294;28;20027;-79
2021/10/30 07:01:14;;;;;;;4.20;2.53;;;;;;;11.73;86.94;99877.19;5289980;28;20038;-78
2021/10/30 07:03:45;;;;;;;6.45;2.70;;;;;;;11.68;88.00;99891.44;5283381;27;20028;-78
2021/10/30 07:06:15;;;;;;;5.30;3.15;;;;;;;11.60;90.01;99894.44;5290235;28;20039;-78
2021/10/30 07:08:45;;;;;;;5.13;2.92;;;;;;;11.24;91.93;99885.78;5288952;28;20102;-78
2021/10/30 07:11:15;;;;;;;5.70;3.70;;;;;;;11.02;93.42;99890.38;5290572;28;20023;-78
2021/10/30 07:13:46;;;;;;;6.50;3.83;;;;;;;10.91;95.52;99885.72;5291250;28;20024;-78
2021/10/30 07:16:16;;;;;;;6.97;4.07;;;;;;;10.90;95.37;99890.13;5290109;28;20020;-79
2021/10/30 07:18:46;;;;;;;7.00;3.55;;;;;;;11.03;95.55;99884.22;5290642;28;20423;-78
2021/10/30 07:21:17;;;;;;;7.05;3.88;;;;;;;11.13;94.75;99872.38;5290939;28;20065;-79
2021/10/30 07:23:47;;;;;;;6.10;3.60;;;;;;;11.23;94.48;99881.47;5287500;28;20103;-78
2021/10/30 07:26:17;;;;;;;4.73;3.37;;;;;;;11.18;94.46;99875.63;5287631;28;20643;-78
2021/10/30 07:28:47;;;;;;;5.97;3.53;;;;;;;11.17;94.38;99873.94;5287855;28;20272;-79
2021/10/30 07:31:18;;;;;;;5.28;3.13;;;;;;;11.33;91.50;99871.41;5287786;28;20031;-78
2021/10/30 07:33:48;;;;;;;6.07;3.20;;;;;;;11.39;91.39;99871.94;5284901;28;20415;-78
2021/10/30 07:36:18;;;;;;;5.80;3.38;;;;;;;11.39;91.18;99874.56;5284884;28;20024;-78
2021/10/30 07:38:49;;;;;;;5.82;3.20;;;;;;;11.41;90.71;99877.13;5290850;28;20099;-79
2021/10/30 07:41:19;;;;;;;6.43;3.85;;;;;;;11.28;91.12;99874.25;5290703;28;20023;-78
2021/10/30 07:43:54;;;;;;;5.40;3.45;;;;;;;11.20;90.19;99873.78;5289925;28;20507;-77
2021/10/30 07:46:24;;;;;;;6.03;3.08;;;;;;;11.23;90.56;99873.63;5287440;28;20266;-78
2021/10/30 07:48:55;;;;;;;7.55;3.80;;;;;;;11.36;90.29;99868.63;5290885;28;20051;-78
2021/10/30 07:51:25;;;;;;;6.15;3.88;;;;;;;11.32;90.98;99865.34;5290398;28;20039;-79
2021/10/30 07:53:56;;;;;;;6.57;3.75;;;;;;;11.19;91.85;99860.78;5291463;28;20039;-78
2021/10/30 07:56:26;;;;;;;7.95;3.83;;;;;;;11.09;92.50;99860.38;5280965;28;20023;-78
2021/10/30 07:58:56;;;;;;;7.07;3.80;;;;;;;11.00;93.77;99856.53;5285753;28;20032;-78
2021/10/30 08:01:27;;;;;;;5.18;3.47;;;;;;;11.19;93.41;99861.63;5286020;28;20019;-78
2021/10/30 08:03:57;;;;;;;8.23;3.88;;;;;;;10.96;95.28;99853.22;5283789;28;20076;-78
2021/10/30 08:06:27;;;;;;;7.57;4.03;;;;;;;10.94;94.79;99854.19;5280194;28;20475;-78
2021/10/30 08:08:58;;;;;;;5.88;3.70;;;;;;;10.92;95.49;99864.75;5289064;28;20440;-78
2021/10/30 08:11:28;;;;;;;7.05;4.35;;;;;;;10.96;95.43;99852.34;5288206;28;20587;-78
2021/10/30 08:13:58;;;;;;;5.85;4.05;;;;;;;10.89;95.46;99853.59;5287685;28;20028;-78
2021/10/30 08:16:29;;;;;;;6.55;4.18;;;;;;;10.91;95.85;99860.44;5286461;28;20077;-78
2021/10/30 08:18:59;;;;;;;7.03;4.45;;;;;;;10.87;96.81;99853.66;5287558;28;20024;-78
2021/10/30 08:21:30;;;;;;;6.72;4.38;;;;;;;10.88;97.05;99851.91;5287885;28;20031;-78
2021/10/30 08:24:00;;;;;;;7.10;4.05;;;;;;;10.94;97.25;99849.84;5283702;28;20092;-78
2021/10/30 08:26:31;;;;;;;8.65;5.03;;;;;;;11.25;95.18;99848.25;5286466;28;20108;-78
2021/10/30 08:29:02;;;;;;;7.38;4.63;;;;;;;12.03;91.94;99843.34;5288084;28;20024;-79
2021/10/30 08:31:33;;;;;;;6.90;4.53;;;;;;;12.00;91.93;99846.97;5288501;28;20027;-78
2021/10/30 08:34:04;;;;;;;7.35;4.72;;;;;;;11.87;91.70;99851.16;5287954;28;20111;-79
2021/10/30 08:36:34;;;;;;;8.23;4.72;;;;;;;12.12;90.37;99851.53;5287698;28;20027;-78
2021/10/30 08:39:05;;;;;;;9.52;4.90;;;;;;;12.60;87.49;99846.25;5286697;28;20027;-78
2021/10/30 08:41:35;;;;;;;8.10;4.75;;;;;;;12.74;87.56;99846.34;5287436;27;20024;-79
2021/10/30 08:44:05;;;;;;;8.25;5.45;;;;;;;13.02;85.86;99838.63;5274801;28;20024;-78
2021/10/30 08:46:37;;;;;;;9.40;5.85;;;;;;;12.86;85.11;99840.44;5287154;28;20167;-78
2021/10/30 08:49:10;;;;;;;10.02;5.97;;;;;;;12.93;85.16;99841.78;5286766;28;20019;-79
2021/10/30 08:51:40;;;;;;;10.30;6.40;;;;;;;12.92;85.35;99842.69;5284127;28;20023;-78
2021/10/30 08:54:12;;;;;;;11.13;6.60;;;;;;;13.07;84.72;99850.56;5292946;28;20030;-78
2021/10/30 08:56:43;;;;;;;10.40;6.60;;;;;;;13.21;85.60;99844.53;5288373;28;20118;-78
2021/10/30 08:59:13;;;;;;;10.57;6.65;;;;;;;13.17;82.91;99843.00;5283469;28;20066;-78
2021/10/30 09:01:47;;;;;;;14.10;7.03;;;;;;;13.31;82.51;99837.81;5282840;28;20024;-79
2021/10/30 09:04:18;;;;;;;11.07;6.50;;;;;;;13.43;81.65;99827.41;5314110;22;20248;-80
2021/10/30 09:07:01;;;;;;;10.88;7.28;;;;;;;13.48;81.28;99827.16;5265449;28;20024;-78
2021/10/30 09:09:32;;;;;;;14.15;7.20;;;;;;;13.77;81.17;99821.84;5272756;28;20478;-79
2021/10/30 09:12:03;;;;;;;9.70;6.60;;;;;;;14.05;80.34;99815.78;5273305;28;20035;-77
2021/10/30 09:14:43;;;;;;;11.52;7.18;;;;;;;14.22;80.89;99820.88;5269559;28;20092;-79
2021/10/30 09:17:17;;;;;;;13.02;7.75;;;;;;;14.31;79.53;99817.66;5277052;28;20020;-78
2021/10/30 09:19:53;;;;;;;13.60;8.13;;;;;;;14.11;79.52;99805.72;5264493;28;20052;-77
2021/10/30 09:22:25;;;;;;;15.43;8.45;;;;;;;13.88;80.80;99802.84;5270054;28;20020;-77
2021/10/30 09:25:04;;;;;;;14.35;9.15;;;;;;;13.77;80.51;99795.59;5277218;28;20072;-77
2021/10/30 09:27:55;;;;;;;14.68;8.80;;;;;;;13.54;80.69;99798.75;5275761;28;20036;-78
2021/10/30 09:30:29;;;;;;;15.20;9.38;;;;;;;13.37;81.83;99803.34;5273866;28;20055;-77
2021/10/30 09:33:05;;;;;;;16.35;9.18;;;;;;;13.39;80.96;99798.84;5274024;28;20034;-80
2021/10/30 09:35:44;;;;;;;16.75;9.75;;;;;;;13.39;81.43;99788.34;5279823;28;20509;-78
2021/10/30 09:38:36;;;;;;;16.42;9.57;;;;;;;13.37;82.25;99785.81;5272488;28;20020;-79
2021/10/30 09:41:43;;;;;;;14.68;9.25;;;;;;;13.20;83.07;99778.09;5273503;28;20031;-79
2021/10/30 09:44:15;;;;;;;;;;;;;;;13.12;83.65;99780.31;5224070;28;20067;-79
2021/10/30 09:46:46;;;;;;;18.17;10.57;;;;;;;13.04;85.29;99772.03;5272417;28;20406;-78
2021/10/30 09:49:19;;;;;;;19.63;11.35;;;;;;;13.04;85.95;99786.94;5273437;28;20024;-77
2021/10/30 09:51:52;;;;;;;17.90;10.60;;;;;;;13.03;86.87;99786.09;5274306;28;20031;-78
2021/10/30 09:54:34;;;;;;;15.98;10.45;;;;;;;12.99;87.08;99778.47;5269161;28;20702;-81
2021/10/30 09:57:07;;;;;;;16.00;10.07;;;;;;;12.86;87.62;99772.25;5275856;28;20189;-78
2021/10/30 09:59:42;;;;;;;17.27;10.77;;;;;;;12.96;88.11;99783.91;5261156;28;20111;-78
2021/10/30 10:02:12;;;;;;;17.00;10.83;;;;;;;12.83;89.46;99771.56;5277392;28;20115;-77
2021/10/30 10:04:44;;;;;;;16.58;11.00;;;;;;;12.69;89.85;99772.38;5276648;28;20356;-77
2021/10/30 10:07:15;;;;;;;16.92;10.90;;;;;;;12.71;89.02;99757.38;5272438;28;20471;-78
2021/10/30 10:09:49;;;;;;;17.20;10.57;;;;;;;12.87;87.51;99750.34;5267710;28;20421;-79
2021/10/30 10:12:20;;;;;;;15.40;10.50;;;;;;;12.86;88.09;99755.66;5272264;28;20644;-77
2021/10/30 10:14:51;;;;;;;18.08;10.35;;;;;;;13.00;86.06;99740.81;5263531;28;20119;-78
2021/10/30 10:17:21;;;;;;;17.35;9.65;;;;;;;12.88;87.17;99734.50;5268630;28;20101;-79
2021/10/30 10:19:52;;;;;;;15.52;9.73;;;;;;;12.93;86.76;99721.16;5277491;28;20028;-78
2021/10/30 10:22:26;;;;;;;16.25;9.38;;;;;;;13.05;86.84;99723.06;5277410;28;20067;-80
2021/10/30 10:25:22;;;;;;;16.13;10.05;;;;;;;13.03;87.05;99709.19;5276250;28;20579;-78
2021/10/30 10:28:14;;;;;;;15.80;9.70;;;;;;;12.91;88.71;99702.00;5272577;28;20023;-78
2021/10/30 10:30:55;;;;;;;14.38;8.80;;;;;;;12.95;89.90;99703.53;5273816;28;20028;-78
2021/10/30 10:33:27;;;;;;;15.30;9.27;;;;;;;12.96;91.20;99693.91;5272400;28;20023;-80
2021/10/30 10:36:12;;;;;;;16.98;10.60;;;;;;;12.91;92.24;99694.13;5269415;28;20641;-77
2021/10/30 10:38:58;;;;;;;17.80;11.18;;;;;;;12.79;93.28;99686.97;5268285;28;20027;-77
2021/10/30 10:41:37;;;;;;;18.45;11.00;;;;;;;12.76;94.25;99674.06;5272951;28;20036;-80
2021/10/30 10:44:09;;;;;;;15.95;11.15;;;;;;;12.70;93.71;99671.81;5267098;28;20067;-78
2021/10/30 10:46:41;;;;;;;19.20;11.43;;;;;;;12.71;93.73;99659.53;5272684;28;20023;-78
2021/10/30 10:49:19;;;;;;;19.00;11.00;;;;;;;12.69;93.15;99656.16;5270393;28;20035;-77
2021/10/30 10:52:03;;;;;;;16.08;10.05;;;;;;;12.79;90.02;99646.81;5272265;28;20078;-77
2021/10/30 10:54:52;;;;;;;14.80;9.48;;;;;;;12.85;90.91;99628.09;5271379;28;20502;-77
2021/10/30 10:57:24;;;;;;;15.52;9.40;;;;;;;12.77;91.77;99633.78;5266255;28;20116;-77
2021/10/30 11:00:01;;;;;;;16.25;9.55;;;;;;;12.77;90.90;99628.56;5266007;28;20031;-79
2021/10/30 11:02:49;;;;;;;18.10;9.50;;;;;;;12.78;91.17;99621.53;5274823;28;20027;-77
2021/10/30 11:05:31;;;;;;;13.80;8.63;;;;;;;12.87;91.60;99610.50;5268644;28;20028;-78
2021/10/30 11:08:07;;;;;;;17.33;8.80;;;;;;;12.86;91.12;99603.56;5263271;28;20020;-80
2021/10/30 11:10:42;;;;;;;14.73;8.65;;;;;;;12.86;92.08;99596.56;5267469;28;20100;-78
2021/10/30 11:13:21;;;;;;;13.55;8.80;;;;;;;12.85;90.95;99586.97;5265525;28;20467;-78
2021/10/30 11:15:55;;;;;;;12.52;7.80;;;;;;;13.05;88.66;99584.88;5248425;28;20038;-80
2021/10/30 11:18:32;;;;;;;11.30;7.18;;;;;;;13.10;86.69;99585.41;5270637;28;20080;-80
2021/10/30 11:21:19;;;;;;;11.35;7.20;;;;;;;13.10;86.03;99572.28;5265661;28;20027;-76
2021/10/30 11:23:51;;;;;;;12.55;7.78;;;;;;;13.18;84.92;99559.56;5269677;28;20028;-81
2021/10/30 11:26:29;;;;;;;12.95;7.47;;;;;;;13.27;83.99;99566.03;5265473;28;20886;-81
2021/10/30 11:29:10;;;;;;;14.60;7.93;;;;;;;13.32;83.97;99570.06;5270470;28;20379;-80
2021/10/30 11:31:42;;;;;;;14.07;8.68;;;;;;;13.32;82.83;99570.06;5267250;28;20024;-77
2021/10/30 11:34:13;;;;;;;13.95;7.50;;;;;;;13.23;84.38;99572.41;5270352;28;20035;-79
2021/10/30 11:36:43;;;;;;;12.57;7.75;;;;;;;13.45;84.22;99575.38;5267330;28;20036;-77
2021/10/30 11:39:15;;;;;;;12.65;8.38;;;;;;;13.44;82.21;99573.69;5268193;28;20119;-76
2021/10/30 11:41:45;;;;;;;16.27;9.38;;;;;;;13.43;82.17;99569.38;5266659;28;20497;-78
2021/10/30 11:44:18;;;;;;;16.67;10.18;;;;;;;13.29;82.98;99562.38;5267030;28;20023;-75
2021/10/30 11:46:56;;;;;;;17.40;11.25;;;;;;;13.22;84.05;99560.22;5265103;28;20679;-79
2021/10/30 11:49:32;;;;;;;19.85;12.48;;;;;;;13.17;87.17;99559.66;5266981;28;20038;-77